createdAt,value
2023-05-04T00:08:13.614Z,66.9
2023-05-04T00:14:03.311Z,64.9
2023-05-04T00:19:03.346Z,65.8
2023-05-04T00:24:13.592Z,67.6
2023-05-04T00:29:13.622Z,67.1
2023-05-04T00:35:03.305Z,67.2
2023-05-04T00:40:03.497Z,68.4
2023-05-04T00:45:03.316Z,69.4
2023-05-04T00:50:13.609Z,68.4
2023-05-04T00:56:03.340Z,69.9
2023-05-04T01:01:13.719Z,70.6
2023-05-04T01:07:03.432Z,70.9
2023-05-04T01:12:13.625Z,70.8
2023-05-04T01:17:13.761Z,71.1
2023-05-04T01:23:03.357Z,71.6
2023-05-04T01:28:13.667Z,71.5
2023-05-04T01:34:03.333Z,72
2023-05-04T01:39:03.430Z,72.6
2023-05-04T01:44:13.660Z,73.1
2023-05-04T01:50:03.567Z,72.5
2023-05-04T01:55:03.346Z,72.9
2023-05-04T02:00:03.630Z,73.5
2023-05-04T02:05:13.586Z,73.3
2023-05-04T02:10:13.658Z,73.6
2023-05-04T02:16:03.370Z,73.8
2023-05-04T02:21:03.314Z,75.1
2023-05-04T02:26:03.356Z,74.5
2023-05-04T02:31:13.617Z,74.8
2023-05-04T02:37:04.731Z,75.8
2023-05-04T02:42:03.331Z,75.8
2023-05-04T02:47:13.612Z,76.2
2023-05-04T02:53:03.335Z,76.9
2023-05-04T02:58:03.344Z,77.8
2023-05-04T03:03:13.635Z,77.8
2023-05-04T03:09:03.344Z,80
2023-05-04T03:14:13.625Z,79.9
2023-05-04T03:20:03.601Z,78.6
2023-05-04T03:25:13.605Z,79.1
2023-05-04T03:30:13.618Z,79
2023-05-04T03:36:03.373Z,78.6
2023-05-04T03:41:13.609Z,80.4
2023-05-04T03:46:13.642Z,81.6
2023-05-04T03:51:13.648Z,81.7
2023-05-04T03:57:03.343Z,82.3
2023-05-04T04:02:03.400Z,81.8
2023-05-04T04:07:03.372Z,82.3
2023-05-04T04:12:13.632Z,82.3
2023-05-04T04:18:03.398Z,81.5
2023-05-04T04:23:03.381Z,80.1
2023-05-04T04:28:13.618Z,81.1
2023-05-04T04:34:03.321Z,81.5
2023-05-04T04:39:03.348Z,81.6
2023-05-04T04:44:03.371Z,81.4
2023-05-04T04:49:03.367Z,82.2
2023-05-04T04:54:03.385Z,83.3
2023-05-04T04:59:03.423Z,81.9
2023-05-04T05:04:13.667Z,80.6
2023-05-04T05:09:13.648Z,80.2
2023-05-04T05:15:03.346Z,79.3
2023-05-04T05:20:13.650Z,78.5
2023-05-04T05:25:13.658Z,77.4
2023-05-04T05:31:03.408Z,78.1
2023-05-04T05:36:13.637Z,78.5
2023-05-04T05:42:03.378Z,72.4
2023-05-04T05:47:13.662Z,66.8
2023-05-04T05:53:03.522Z,64.3
2023-05-04T05:58:03.416Z,58.4
2023-05-04T06:03:13.726Z,56.8
2023-05-04T06:09:03.354Z,53.8
2023-05-04T06:14:03.367Z,53
2023-05-04T06:19:03.369Z,50.8
2023-05-04T06:24:03.377Z,50.3
2023-05-04T06:29:13.627Z,52.1
2023-05-04T06:35:03.406Z,52.6
2023-05-04T06:40:13.939Z,51.2
2023-05-04T06:46:03.588Z,51.7
2023-05-04T06:51:13.614Z,55.3
2023-05-04T06:56:13.648Z,52.1
2023-05-04T07:01:14.868Z,53.6
2023-05-04T07:07:03.358Z,54.1
2023-05-04T07:12:13.678Z,49.8
2023-05-04T07:18:03.435Z,49.4
2023-05-04T07:23:03.333Z,45.6
2023-05-04T07:28:03.341Z,48
2023-05-04T07:33:03.654Z,47
2023-05-04T07:38:03.386Z,46.7
2023-05-04T07:43:13.659Z,45.4
2023-05-04T07:54:03.353Z,45.5
2023-05-04T07:59:03.397Z,43.1
2023-05-04T08:04:13.624Z,41
2023-05-04T08:09:13.654Z,40.9
2023-05-04T08:14:13.685Z,39.1
2023-05-04T08:20:03.345Z,39.5
2023-05-04T08:25:03.693Z,39.2
2023-05-04T08:30:13.669Z,39.4
2023-05-04T08:35:13.697Z,38.7
2023-05-04T08:41:03.369Z,36.7
2023-05-04T08:46:03.408Z,37.1
2023-05-04T08:51:13.687Z,35.1
2023-05-04T08:57:03.406Z,34.8
2023-05-04T09:02:13.770Z,32.9
2023-05-04T09:07:13.714Z,33
2023-05-04T09:13:03.436Z,33.5
2023-05-04T09:18:03.481Z,30.4
2023-05-04T09:23:13.712Z,32
2023-05-04T09:28:13.721Z,31.4
2023-05-04T09:34:03.392Z,31.4
2023-05-04T09:39:03.414Z,29.6
2023-05-04T09:44:13.707Z,32.9
2023-05-04T09:49:13.722Z,33.6
2023-05-04T09:55:03.534Z,33.8
2023-05-04T10:00:13.723Z,34.4
2023-05-04T10:05:13.727Z,31.4
2023-05-04T10:11:03.440Z,31.5
2023-05-04T10:16:13.760Z,31.8
2023-05-04T10:22:03.467Z,31.8
2023-05-04T10:27:13.728Z,33
2023-05-04T10:33:03.469Z,30
2023-05-04T10:38:03.468Z,30.2
2023-05-04T10:43:13.761Z,30.3
2023-05-04T10:48:13.849Z,30.8
2023-05-04T10:54:03.667Z,30.4
2023-05-04T10:59:13.754Z,31.7
2023-05-04T11:04:13.726Z,32.8
2023-05-04T11:09:13.757Z,33.3
2023-05-04T11:15:03.720Z,32.2
2023-05-04T11:20:03.432Z,31.8
2023-05-04T11:25:13.736Z,32.6
2023-05-04T11:30:13.814Z,32.6
2023-05-04T11:36:03.421Z,33.4
2023-05-04T11:41:13.870Z,34.3
2023-05-04T11:46:13.802Z,35.6
2023-05-04T11:57:03.441Z,36.4
2023-05-04T12:02:13.791Z,35.4
2023-05-04T12:08:03.433Z,34.5
2023-05-04T12:13:03.523Z,35.8
2023-05-04T12:18:13.786Z,36.4
2023-05-04T12:24:03.422Z,35.6
2023-05-04T12:29:03.453Z,34.8
2023-05-04T12:34:03.450Z,35.1
2023-05-04T12:39:13.768Z,33.8
2023-05-04T12:44:13.800Z,33.9
2023-05-04T12:49:13.808Z,34.6
2023-05-04T12:55:03.504Z,34.1
2023-05-04T13:00:13.797Z,33.3
2023-05-04T13:06:03.456Z,33.3
2023-05-04T13:11:03.479Z,31.5
2023-05-04T13:16:13.846Z,31.1
2023-05-04T13:21:13.823Z,32.3
2023-05-04T13:27:03.475Z,30.7
2023-05-04T13:32:13.838Z,31.8
2023-05-04T13:38:03.471Z,30.7
2023-05-04T13:43:13.842Z,32.4
2023-05-04T13:49:03.501Z,31.6
2023-05-04T13:54:13.824Z,32.1
2023-05-04T14:00:07.613Z,32.5
2023-05-04T14:05:03.518Z,33.2
2023-05-04T14:10:13.834Z,31.5
2023-05-04T14:16:03.495Z,32.6
2023-05-04T14:21:03.494Z,32.7
2023-05-04T14:26:13.754Z,32.9
2023-05-04T14:31:13.828Z,33.6
2023-05-04T14:37:03.487Z,33.3
2023-05-04T14:42:13.774Z,34.8
2023-05-04T14:48:03.505Z,34.1
2023-05-04T14:53:13.777Z,34.9
2023-05-04T14:59:03.498Z,34.4
2023-05-04T15:04:03.522Z,35.2
2023-05-04T15:09:13.779Z,35.3
2023-05-04T15:14:13.796Z,35.8
2023-05-04T15:20:03.492Z,35
2023-05-04T15:25:03.502Z,35
2023-05-04T15:30:13.797Z,35.5
2023-05-04T15:36:03.493Z,35.8
2023-05-04T15:41:03.519Z,35.1
2023-05-04T15:46:13.832Z,36.9
2023-05-04T15:52:03.484Z,37.6
2023-05-04T15:57:03.528Z,36
2023-05-04T16:02:13.787Z,36.7
2023-05-04T16:07:13.798Z,37
2023-05-04T16:12:13.813Z,36.5
2023-05-04T16:17:13.829Z,35.5
2023-05-04T16:23:03.504Z,35.7
2023-05-04T16:28:03.578Z,36
2023-05-04T16:33:13.806Z,36.1
2023-05-04T16:38:13.842Z,36.8
2023-05-04T16:44:03.568Z,37
2023-05-04T16:49:03.513Z,36.3
2023-05-04T16:54:13.801Z,35.6
2023-05-04T16:59:13.844Z,35.8
2023-05-04T17:05:03.559Z,36.1
2023-05-04T17:10:13.828Z,35.9
2023-05-04T17:16:03.617Z,36.5
2023-05-04T17:21:13.829Z,36.3
2023-05-04T17:27:03.541Z,36.9
2023-05-04T17:32:13.930Z,37
2023-05-04T17:38:03.540Z,37.5
2023-05-04T17:43:13.841Z,37.9
2023-05-04T17:49:03.540Z,38.2
2023-05-04T17:54:13.822Z,39
2023-05-04T18:00:03.551Z,37.3
2023-05-04T18:05:13.823Z,39.7
2023-05-04T18:11:03.838Z,40.1
2023-05-04T18:16:13.891Z,39.1
2023-05-04T18:21:13.821Z,39.8
2023-05-04T18:26:13.864Z,39.1
2023-05-04T18:32:03.715Z,40.2
2023-05-04T18:37:13.818Z,41
2023-05-04T18:42:13.848Z,40.5
2023-05-04T18:47:14.027Z,41.5
2023-05-04T18:53:03.571Z,40.9
2023-05-04T18:58:13.864Z,41.5
2023-05-04T19:04:03.583Z,42.6
2023-05-04T19:09:13.914Z,42.9
2023-05-04T19:15:03.561Z,43.3
2023-05-04T19:20:03.635Z,44.3
2023-05-04T19:25:03.587Z,44.5
2023-05-04T19:30:03.584Z,45.7
2023-05-04T19:35:13.866Z,46.1
2023-05-04T19:46:03.604Z,48.2
2023-05-04T19:51:13.846Z,49.7
2023-05-04T19:56:13.871Z,49.7
2023-05-04T20:02:03.679Z,50.3
2023-05-04T20:07:13.888Z,50.7
2023-05-04T20:13:03.645Z,52.7
2023-05-04T20:18:13.879Z,51.9
2023-05-04T20:24:03.567Z,51.6
2023-05-04T20:29:13.869Z,51.9
2023-05-04T20:35:03.586Z,52.4
2023-05-04T20:40:03.596Z,53
2023-05-04T20:45:13.884Z,53.4
2023-05-04T20:50:13.891Z,54
2023-05-04T20:56:03.625Z,54
2023-05-04T21:01:13.906Z,55.5
2023-05-04T21:07:03.584Z,55.9
2023-05-04T21:12:03.608Z,56.6
2023-05-04T21:17:03.617Z,56.1
2023-05-04T21:22:13.895Z,57.2
2023-05-04T21:28:03.597Z,57.4
2023-05-04T21:33:03.626Z,58.3
2023-05-04T21:38:13.884Z,58.5
2023-05-04T21:43:13.909Z,57.4
2023-05-04T21:49:03.592Z,58.4
2023-05-04T21:54:13.890Z,57.3
2023-05-04T21:59:13.892Z,58.3
2023-05-04T22:05:03.670Z,58.5
2023-05-04T22:10:13.891Z,58.6
2023-05-04T22:16:03.647Z,58.7
2023-05-04T22:21:13.896Z,58.1
2023-05-04T22:26:13.894Z,57.7
2023-05-04T22:32:03.634Z,58.1
2023-05-04T22:37:03.640Z,57.8
2023-05-04T22:42:13.904Z,58.1
2023-05-04T22:48:03.659Z,57.9
2023-05-04T22:53:13.942Z,58.3
2023-05-04T22:59:03.629Z,58.3
2023-05-04T23:04:13.898Z,58
2023-05-04T23:09:13.901Z,58.6
2023-05-04T23:14:13.944Z,58.6
2023-05-04T23:20:03.616Z,57.1
2023-05-04T23:25:13.927Z,57.6
2023-05-04T23:30:13.922Z,58.7
2023-05-04T23:36:03.655Z,57.1
2023-05-04T23:41:13.925Z,57.2
2023-05-04T23:47:03.643Z,57.4
2023-05-04T23:52:13.918Z,58.1
2023-05-04T23:58:03.643Z,57.5
